Terminal Aerodrome Forecast
Issued by NWS

Home | Current Version | Previous Version | Text Only | Print | Product List | Glossary On
Versions: 1 2 3 4 5 6 7 8 9 10 11 12 13 14 15 16 17 18 19 20 21 22 23 24 25
000
FTUS45 KRIW 060500
TAFPNA
TAF
KPNA 060529Z 0606/0706 29006KT P6SM VCSH BKN050
     FM061100 29005KT P6SM FEW050 SCT080
     FM062000 29014KT P6SM SCT060
     FM070100 11006KT P6SM VCSH BKN060
     FM070500 11007KT P6SM -SHRA BKN030
      AMD LTD TO CLD VIS AND WIND=

USA.gov is the U.S. government's official web portal to all federal, state and local government web resources and services.